Time;durP1;ratioP1;P1;durP2;ratioP2;P2;SDS_P1;SDS_P2;PMS_P1;PMS_P2;Temp;Humidity;BMP_temperature;BMP_pressure;BME280_temperature;BME280_humidity;BME280_pressure;Samples;Min_cycle;Max_cycle;Signal;HPM_P1;HPM_P2
2022/08/06 00:02:23;;;;;;;28.92;13.85;;;;;;;20.25;59.44;100411.72;5047875;28;20048;-84
2022/08/06 00:04:50;;;;;;;28.73;14.43;;;;;;;20.46;59.64;100448.78;5034544;28;20052;-81
2022/08/06 00:07:17;;;;;;;30.52;14.75;;;;;;;20.10;59.94;100399.06;5031580;28;20708;-82
2022/08/06 00:09:43;;;;;;;28.67;13.55;;;;;;;20.29;59.83;100434.44;5025920;28;20086;-82
2022/08/06 00:12:09;;;;;;;32.28;13.82;;;;;;;19.93;59.87;100383.91;5050749;28;20541;-84
2022/08/06 00:14:36;;;;;;;34.45;13.60;;;;;;;20.09;60.16;100414.09;5051882;28;20063;-82
2022/08/06 00:17:02;;;;;;;32.40;15.05;;;;;;;20.13;60.42;100439.47;5033495;28;20044;-81
2022/08/06 00:19:28;;;;;;;27.13;13.65;;;;;;;19.99;60.51;100432.06;5024682;28;20045;-84
2022/08/06 00:21:55;;;;;;;26.42;14.82;;;;;;;19.88;60.92;100418.41;5014875;28;20081;-81
2022/08/06 00:24:21;;;;;;;27.65;14.45;;;;;;;20.01;60.90;100446.06;5014850;28;20065;-81
2022/08/06 00:26:47;;;;;;;28.38;14.43;;;;;;;20.07;61.06;100463.47;5042017;28;20048;-81
2022/08/06 00:29:14;;;;;;;24.65;14.52;;;;;;;19.70;61.20;100406.72;5005667;28;20144;-80
2022/08/06 00:31:40;;;;;;;28.88;15.63;;;;;;;19.65;61.43;100406.88;5022923;28;20041;-84
2022/08/06 00:34:08;;;;;;;36.38;16.50;;;;;;;19.67;61.47;100422.69;5007024;28;20068;-83
2022/08/06 00:36:34;;;;;;;26.70;15.52;;;;;;;19.63;61.65;100435.16;4999471;28;20045;-82
2022/08/06 00:39:03;;;;;;;27.48;14.70;;;;;;;19.74;61.55;100455.00;5048134;28;20060;-80
2022/08/06 00:41:30;;;;;;;26.65;15.88;;;;;;;19.72;61.73;100457.69;5046021;28;20061;-83
2022/08/06 00:43:58;;;;;;;30.55;15.82;;;;;;;19.50;61.68;100418.88;5023107;28;20060;-82
2022/08/06 00:46:26;;;;;;;27.25;15.82;;;;;;;19.47;61.58;100426.03;5040362;28;20512;-81
2022/08/06 00:48:53;;;;;;;25.70;14.00;;;;;;;19.60;62.01;100452.84;5006388;28;20033;-84
2022/08/06 00:51:19;;;;;;;25.02;14.07;;;;;;;19.66;61.97;100471.97;5039111;28;20098;-80
2022/08/06 00:53:46;;;;;;;28.63;13.90;;;;;;;19.42;62.05;100448.16;5022338;28;20110;-83
2022/08/06 00:56:12;;;;;;;25.27;13.65;;;;;;;19.51;62.21;100472.50;5039307;28;20045;-82
2022/08/06 00:58:38;;;;;;;36.15;14.40;;;;;;;19.51;62.67;100478.69;5001201;28;20569;-83
2022/08/06 01:01:05;;;;;;;26.55;14.20;;;;;;;19.36;62.76;100469.50;5019995;28;20043;-80
2022/08/06 01:03:31;;;;;;;25.17;13.93;;;;;;;19.22;62.80;100448.88;5021890;28;20029;-82
2022/08/06 01:05:57;;;;;;;40.88;19.92;;;;;;;19.13;62.98;100446.56;5039310;28;20546;-85
2022/08/06 01:08:23;;;;;;;28.38;14.60;;;;;;;19.38;63.50;100478.25;5021676;28;20045;-82
2022/08/06 01:10:49;;;;;;;25.92;14.60;;;;;;;19.34;63.91;100470.47;5039260;28;20497;-83
2022/08/06 01:13:16;;;;;;;24.42;14.45;;;;;;;19.06;64.08;100426.59;5039211;28;20042;-84
2022/08/06 01:15:51;;;;;;;24.40;14.63;;;;;;;19.32;64.05;100469.66;5039584;28;20037;-83
2022/08/06 01:18:31;;;;;;;33.28;17.77;;;;;;;19.33;64.03;100481.94;5038108;28;20048;-82
2022/08/06 01:20:57;;;;;;;36.90;18.40;;;;;;;19.36;63.90;100484.47;5037971;28;20087;-80
2022/08/06 01:23:48;;;;;;;30.80;14.95;;;;;;;19.32;63.94;100482.84;4986986;28;20106;-83
2022/08/06 01:26:31;;;;;;;32.60;19.38;;;;;;;19.06;63.81;100459.09;4990817;28;20408;-83
2022/08/06 01:29:32;;;;;;;39.40;19.40;;;;;;;19.26;64.37;100489.19;5024131;28;20033;-80
2022/08/06 01:32:15;;;;;;;33.08;17.52;;;;;;;19.11;64.40;100469.47;5022014;28;20064;-80
2022/08/06 01:34:52;;;;;;;26.58;14.38;;;;;;;19.23;64.53;100482.25;5055347;28;20164;-81
2022/08/06 01:37:44;;;;;;;30.83;15.98;;;;;;;19.09;64.63;100471.31;5049542;28;20048;-82
2022/08/06 01:40:18;;;;;;;27.40;16.15;;;;;;;18.99;65.01;100456.72;4993870;28;20048;-80
2022/08/06 01:42:45;;;;;;;32.92;17.85;;;;;;;19.05;64.99;100461.78;5021418;28;20054;-82
2022/08/06 01:45:15;;;;;;;28.77;17.65;;;;;;;18.89;64.77;100440.31;5040965;28;20044;-82
2022/08/06 01:47:45;;;;;;;36.70;18.02;;;;;;;18.98;64.52;100447.06;5040010;28;20057;-83
2022/08/06 01:50:12;;;;;;;32.47;17.45;;;;;;;19.14;64.86;100464.09;5020731;28;20037;-81
2022/08/06 01:52:42;;;;;;;32.03;17.70;;;;;;;18.94;64.78;100428.69;5020845;28;20510;-85
2022/08/06 01:55:13;;;;;;;27.25;17.40;;;;;;;19.35;65.00;100495.94;5038882;28;20043;-81
2022/08/06 01:58:01;;;;;;;25.85;16.40;;;;;;;19.41;65.24;100487.81;5038964;28;20119;-83
2022/08/06 02:00:28;;;;;;;28.50;15.45;;;;;;;19.42;65.29;100484.25;5009053;28;20174;-81
2022/08/06 02:02:55;;;;;;;31.50;16.85;;;;;;;19.37;64.81;100455.41;5039423;28;20037;-81
2022/08/06 02:05:23;;;;;;;23.98;15.40;;;;;;;19.49;64.96;100453.22;5039699;28;21115;-78
2022/08/06 02:07:52;;;;;;;24.83;15.93;;;;;;;19.76;64.76;100483.03;5038647;28;20049;-82
2022/08/06 02:10:22;;;;;;;29.45;16.52;;;;;;;19.83;64.52;100478.44;5020190;28;20127;-81
2022/08/06 02:12:52;;;;;;;28.75;15.90;;;;;;;19.79;64.49;100456.53;5047979;28;20049;-84
2022/08/06 02:15:22;;;;;;;28.50;15.60;;;;;;;19.96;64.09;100468.31;5030632;28;20116;-82
2022/08/06 02:17:58;;;;;;;29.95;16.13;;;;;;;20.07;63.92;100468.75;4993695;28;20044;-81
2022/08/06 02:20:41;;;;;;;37.45;16.60;;;;;;;20.12;63.33;100471.22;5020146;28;20038;-82
2022/08/06 02:23:12;;;;;;;29.50;16.35;;;;;;;20.07;63.19;100444.97;5022751;28;20043;-83
2022/08/06 02:25:42;;;;;;;34.88;15.52;;;;;;;20.17;63.48;100456.94;5033608;28;20041;-81
2022/08/06 02:28:10;;;;;;;26.98;16.30;;;;;;;20.38;63.25;100482.56;5020337;28;20045;-83
2022/08/06 02:30:41;;;;;;;23.48;15.07;;;;;;;20.67;62.74;100499.06;5012214;28;20472;-84
2022/08/06 02:33:07;;;;;;;24.35;15.88;;;;;;;20.68;62.58;100488.41;5048934;28;20049;-83
2022/08/06 02:35:42;;;;;;;25.17;15.60;;;;;;;20.74;62.32;100463.53;5038870;28;20086;-82
2022/08/06 02:38:13;;;;;;;20.85;15.00;;;;;;;20.67;61.86;100438.25;5032023;28;20090;-81
2022/08/06 02:40:49;;;;;;;24.75;14.82;;;;;;;21.13;61.74;100498.97;5018631;28;20021;-83
2022/08/06 02:43:22;;;;;;;26.73;16.08;;;;;;;21.08;61.51;100499.19;5057639;28;20052;-79
2022/08/06 02:46:10;;;;;;;21.58;14.55;;;;;;;21.04;61.39;100489.66;5052885;28;20047;-81
2022/08/06 02:48:44;;;;;;;23.17;15.18;;;;;;;21.15;61.25;100491.84;5051275;28;20045;-80
2022/08/06 02:51:14;;;;;;;26.42;15.40;;;;;;;21.22;60.53;100507.38;5056184;28;20064;-81
2022/08/06 02:53:59;;;;;;;21.10;14.93;;;;;;;21.27;60.98;100507.22;5058508;28;20064;-82
2022/08/06 02:56:26;;;;;;;31.48;21.10;;;;;;;21.12;60.56;100497.25;5042295;28;20280;-82
2022/08/06 02:58:55;;;;;;;36.38;23.25;;;;;;;21.07;61.03;100500.94;5030073;28;20041;-82
2022/08/06 03:01:26;;;;;;;22.48;16.55;;;;;;;21.04;61.36;100503.75;5026312;28;20094;-83
2022/08/06 03:03:57;;;;;;;22.88;15.50;;;;;;;20.92;61.88;100486.59;5034041;28;20061;-80
2022/08/06 03:06:26;;;;;;;23.77;15.82;;;;;;;21.10;62.11;100504.41;5017143;28;20354;-81
2022/08/06 03:08:55;;;;;;;26.17;17.00;;;;;;;21.05;61.85;100489.59;5044268;28;20067;-81
2022/08/06 03:11:24;;;;;;;38.35;17.08;;;;;;;21.14;61.95;100496.28;5043187;28;20087;-83
2022/08/06 03:13:52;;;;;;;28.45;16.67;;;;;;;21.18;61.67;100495.25;5013386;28;20037;-80
2022/08/06 03:16:20;;;;;;;33.10;17.67;;;;;;;21.24;62.13;100494.13;5039679;28;20391;-80
2022/08/06 03:18:48;;;;;;;31.02;17.13;;;;;;;21.28;62.07;100492.19;5037532;28;20045;-81
2022/08/06 03:21:16;;;;;;;37.80;17.45;;;;;;;21.35;61.79;100491.84;5037075;28;20496;-81
2022/08/06 03:23:43;;;;;;;27.58;17.00;;;;;;;21.47;62.14;100500.22;5040682;28;20303;-78
2022/08/06 03:26:10;;;;;;;33.67;16.85;;;;;;;21.50;61.72;100500.91;5038070;28;20132;-83
2022/08/06 03:28:40;;;;;;;28.02;16.52;;;;;;;21.47;61.79;100489.63;5043087;28;20029;-81
2022/08/06 03:31:10;;;;;;;32.08;15.70;;;;;;;21.64;61.96;100503.00;5030577;28;20033;-84
2022/08/06 03:33:37;;;;;;;28.35;16.80;;;;;;;21.66;61.38;100485.25;5030203;28;20044;-81
2022/08/06 03:36:04;;;;;;;33.85;16.52;;;;;;;21.85;61.30;100495.03;5036346;28;20049;-83
2022/08/06 03:38:38;;;;;;;32.60;16.45;;;;;;;21.73;60.48;100467.31;5024657;28;20051;-84
2022/08/06 03:41:05;;;;;;;24.73;15.18;;;;;;;21.79;60.76;100453.78;5032120;28;20037;-83
2022/08/06 03:43:31;;;;;;;23.75;15.70;;;;;;;22.10;60.45;100496.56;5037490;28;20416;-87
2022/08/06 03:46:02;;;;;;;25.50;15.32;;;;;;;21.90;60.35;100468.31;5034740;28;20504;-82
2022/08/06 03:48:33;;;;;;;22.53;14.80;;;;;;;22.14;60.79;100486.66;5034824;28;20045;-81
2022/08/06 03:51:02;;;;;;;19.40;14.52;;;;;;;22.10;60.42;100448.88;5045970;28;20040;-83
2022/08/06 03:53:34;;;;;;;23.05;14.10;;;;;;;22.48;60.23;100495.72;5009871;28;20123;-84
2022/08/06 03:56:03;;;;;;;24.55;14.65;;;;;;;22.60;59.75;100511.03;5035832;28;20072;-84
2022/08/06 03:58:33;;;;;;;21.42;14.85;;;;;;;22.63;59.50;100512.69;5038390;28;20041;-83
2022/08/06 04:01:02;;;;;;;22.75;15.35;;;;;;;22.54;59.68;100483.03;5042313;28;20037;-82
2022/08/06 04:03:29;;;;;;;19.25;14.02;;;;;;;22.49;59.43;100469.13;5051895;28;20170;-81
2022/08/06 04:05:56;;;;;;;21.13;13.95;;;;;;;22.72;59.47;100485.72;5051980;28;20064;-82
2022/08/06 04:08:25;;;;;;;22.17;14.05;;;;;;;23.08;59.32;100505.19;5040039;28;20980;-81
2022/08/06 04:10:52;;;;;;;20.05;14.52;;;;;;;23.30;58.94;100505.88;5025414;28;20024;-83
2022/08/06 04:13:22;;;;;;;20.00;13.70;;;;;;;23.07;58.26;100439.78;5026276;28;20041;-86
2022/08/06 04:15:49;;;;;;;22.50;14.70;;;;;;;23.38;57.66;100486.03;5027374;28;20025;-84
2022/08/06 04:18:19;;;;;;;19.13;13.77;;;;;;;23.54;57.94;100510.84;5044487;28;20053;-82
2022/08/06 04:20:47;;;;;;;20.60;13.70;;;;;;;23.66;57.63;100505.81;5054988;28;20138;-85
2022/08/06 04:23:14;;;;;;;17.02;13.52;;;;;;;23.92;57.86;100509.78;5021399;28;20041;-84
2022/08/06 04:25:44;;;;;;;15.85;13.23;;;;;;;23.91;57.28;100487.66;5037786;28;20048;-82
2022/08/06 04:28:13;;;;;;;20.97;13.67;;;;;;;24.14;57.10;100512.16;5039068;28;20091;-86
2022/08/06 04:30:40;;;;;;;19.55;12.70;;;;;;;24.12;56.65;100466.19;5002609;28;20304;-83
2022/08/06 04:33:11;;;;;;;18.55;13.32;;;;;;;24.31;56.27;100479.31;5040976;28;20498;-86
2022/08/06 04:35:42;;;;;;;14.60;12.05;;;;;;;24.65;55.91;100480.06;5036853;28;20041;-84
2022/08/06 04:38:09;;;;;;;18.52;11.77;;;;;;;24.89;55.13;100486.75;5022974;28;20055;-81
2022/08/06 04:40:37;;;;;;;19.40;11.90;;;;;;;24.77;54.23;100461.72;5047121;28;20045;-81
2022/08/06 04:43:09;;;;;;;16.45;11.73;;;;;;;24.91;54.41;100483.06;5022301;28;20037;-84
2022/08/06 04:45:38;;;;;;;15.95;11.50;;;;;;;25.09;54.43;100474.91;5020451;28;20045;-84
2022/08/06 04:48:08;;;;;;;15.80;11.57;;;;;;;25.21;54.34;100466.22;5026069;28;20124;-83
2022/08/06 04:50:35;;;;;;;13.10;10.50;;;;;;;25.43;53.86;100456.97;5022286;28;20057;-85
2022/08/06 04:53:05;;;;;;;16.48;10.52;;;;;;;25.75;53.40;100474.59;5022605;28;20135;-83
2022/08/06 04:55:32;;;;;;;16.40;10.60;;;;;;;25.88;53.17;100499.50;4999809;28;20045;-85
2022/08/06 04:57:58;;;;;;;14.70;10.45;;;;;;;25.96;52.14;100497.22;5021546;28;20037;-82
2022/08/06 05:00:25;;;;;;;11.77;9.90;;;;;;;25.79;52.83;100478.78;5021377;28;20170;-83
2022/08/06 05:02:51;;;;;;;15.73;10.60;;;;;;;25.94;51.92;100492.94;5021998;28;20464;-82
2022/08/06 05:05:21;;;;;;;16.40;11.25;;;;;;;26.06;52.08;100486.84;5039787;28;20045;-82
2022/08/06 05:07:48;;;;;;;15.10;10.57;;;;;;;26.07;52.03;100483.22;5021789;28;20044;-82
2022/08/06 05:10:14;;;;;;;14.52;10.68;;;;;;;26.07;51.56;100463.69;5020961;28;20523;-79
2022/08/06 05:12:49;;;;;;;12.02;10.07;;;;;;;26.26;51.60;100469.59;5039823;28;20033;-84
2022/08/06 05:15:33;;;;;;;11.40;10.20;;;;;;;26.62;50.60;100499.31;5021954;28;20084;-83
2022/08/06 05:18:06;;;;;;;16.85;9.75;;;;;;;26.74;50.21;100490.53;5004872;28;20094;-83
2022/08/06 05:20:36;;;;;;;13.20;9.77;;;;;;;27.03;50.23;100482.38;5039946;28;20567;-85
2022/08/06 05:23:09;;;;;;;12.20;9.80;;;;;;;27.52;50.02;100477.34;5050021;28;20064;-83
2022/08/06 05:25:39;;;;;;;11.95;9.20;;;;;;;27.84;48.60;100460.00;5004268;28;20092;-81
2022/08/06 05:28:06;;;;;;;13.02;9.75;;;;;;;27.94;48.02;100475.28;4972525;28;20034;-82
2022/08/06 05:30:32;;;;;;;11.32;8.52;;;;;;;27.85;48.24;100481.28;5010310;28;20050;-82
2022/08/06 05:32:59;;;;;;;15.07;9.13;;;;;;;28.05;47.66;100476.34;5039429;28;20138;-83
2022/08/06 05:35:26;;;;;;;11.15;9.18;;;;;;;28.28;47.63;100468.50;5038378;28;20036;-85
2022/08/06 05:37:52;;;;;;;15.60;9.13;;;;;;;28.65;47.28;100473.78;5022412;28;20056;-83
2022/08/06 05:40:18;;;;;;;10.63;8.70;;;;;;;30.02;46.06;100467.81;5003850;28;20048;-81
2022/08/06 05:42:44;;;;;;;14.32;8.00;;;;;;;31.60;42.86;100443.06;5020716;28;20037;-84
2022/08/06 05:45:12;;;;;;;9.10;8.20;;;;;;;33.11;40.30;100459.19;5056340;28;20048;-82
2022/08/06 05:47:43;;;;;;;15.27;8.68;;;;;;;34.24;38.85;100464.59;5021176;28;20404;-83
2022/08/06 05:50:14;;;;;;;9.10;7.68;;;;;;;35.29;36.70;100439.69;5021898;28;20037;-83
2022/08/06 05:53:16;;;;;;;10.77;7.72;;;;;;;36.64;34.11;100460.66;5074420;28;20055;-81
2022/08/06 05:56:02;;;;;;;8.43;7.63;;;;;;;37.79;32.58;100434.34;4969054;28;20045;-85
2022/08/06 05:58:36;;;;;;;9.35;8.00;;;;;;;38.28;30.56;100423.22;5004364;28;20041;-85
2022/08/06 06:01:07;;;;;;;10.40;8.20;;;;;;;38.93;29.84;100466.44;5028101;28;20082;-85
2022/08/06 06:03:37;;;;;;;10.73;7.45;;;;;;;39.06;28.59;100464.94;5020878;28;20052;-84
2022/08/06 06:06:08;;;;;;;9.00;7.45;;;;;;;39.21;27.96;100432.31;5040477;28;20073;-85
2022/08/06 06:08:36;;;;;;;8.75;7.47;;;;;;;39.51;28.16;100464.97;5003136;28;20110;-85
2022/08/06 06:11:07;;;;;;;9.13;7.45;;;;;;;40.06;27.29;100428.22;5044502;28;20499;-86
2022/08/06 06:13:34;;;;;;;9.13;7.78;;;;;;;41.15;25.42;100460.06;5040278;28;20047;-84
2022/08/06 06:16:29;;;;;;;10.30;8.80;;;;;;;41.89;25.06;100464.03;5036647;28;20064;-84
2022/08/06 06:19:29;;;;;;;10.43;9.27;;;;;;;42.81;23.57;100466.34;5037258;28;20060;-86
2022/08/06 06:22:35;;;;;;;10.18;9.23;;;;;;;43.59;22.74;100458.41;5058279;28;20029;-83
2022/08/06 06:25:09;;;;;;;8.77;7.63;;;;;;;43.97;22.62;100449.41;5068945;28;20510;-84
2022/08/06 06:27:52;;;;;;;8.80;7.95;;;;;;;44.64;21.30;100453.63;5028638;28;20029;-85
2022/08/06 06:30:28;;;;;;;10.93;8.50;;;;;;;45.15;19.64;100429.72;5024808;28;20040;-81
2022/08/06 06:33:07;;;;;;;9.00;8.05;;;;;;;44.41;20.34;100462.44;5039786;28;20518;-81
2022/08/06 06:35:53;;;;;;;11.18;8.43;;;;;;;44.18;20.88;100444.69;5041879;28;20139;-83
2022/08/06 06:38:44;;;;;;;9.43;7.65;;;;;;;45.12;19.34;100441.19;5047015;28;20041;-82
2022/08/06 06:41:22;;;;;;;9.05;8.10;;;;;;;46.08;18.82;100451.66;5039631;28;20044;-83
2022/08/06 06:44:04;;;;;;;11.43;8.30;;;;;;;46.54;18.53;100446.53;5040725;28;20056;-84
2022/08/06 06:46:46;;;;;;;9.15;8.25;;;;;;;47.05;18.33;100449.66;5016170;28;20041;-83
2022/08/06 06:49:42;;;;;;;10.52;7.43;;;;;;;48.07;17.45;100448.44;5010461;28;20060;-83
2022/08/06 06:52:26;;;;;;;11.77;8.38;;;;;;;48.11;17.59;100439.41;5016733;28;20132;-84
2022/08/06 06:55:17;;;;;;;9.40;8.60;;;;;;;48.77;16.77;100437.22;5056872;28;20056;-83
2022/08/06 06:57:54;;;;;;;7.55;6.95;;;;;;;49.28;16.18;100434.31;5036609;28;20068;-85
2022/08/06 07:00:21;;;;;;;7.90;7.13;;;;;;;49.82;15.61;100439.13;5037865;28;20037;-85
2022/08/06 07:02:51;;;;;;;10.40;8.13;;;;;;;49.71;15.24;100434.53;5053567;28;20044;-88
2022/08/06 07:05:20;;;;;;;9.80;7.25;;;;;;;49.39;15.96;100429.75;5052773;28;20455;-85
2022/08/06 07:07:48;;;;;;;8.65;7.53;;;;;;;49.44;15.45;100416.00;4997914;28;20065;-83
2022/08/06 07:10:16;;;;;;;8.68;7.97;;;;;;;50.39;14.59;100438.81;4989443;28;20045;-83
2022/08/06 07:12:44;;;;;;;13.77;8.30;;;;;;;50.39;14.21;100447.13;5018362;28;20068;-84
2022/08/06 07:15:12;;;;;;;9.48;8.20;;;;;;;51.05;14.32;100443.97;4999751;28;20069;-84
2022/08/06 07:17:40;;;;;;;8.15;7.00;;;;;;;51.15;13.54;100409.13;4996755;28;20401;-83
2022/08/06 07:20:10;;;;;;;7.80;7.13;;;;;;;52.05;13.33;100432.94;5017358;28;20033;-85
2022/08/06 07:22:41;;;;;;;8.18;7.38;;;;;;;52.46;12.99;100420.16;5004304;28;20056;-83
2022/08/06 07:25:11;;;;;;;8.60;7.80;;;;;;;51.91;13.23;100438.19;5037272;28;20068;-84
2022/08/06 07:27:46;;;;;;;7.90;7.20;;;;;;;51.27;13.47;100370.16;4989700;28;20421;-86
2022/08/06 07:30:15;;;;;;;8.60;7.90;;;;;;;50.84;13.72;100409.81;4984448;28;20034;-88
2022/08/06 07:32:43;;;;;;;7.90;7.20;;;;;;;51.62;13.28;100390.75;5018222;28;20369;-88
2022/08/06 07:35:14;;;;;;;7.10;6.50;;;;;;;52.83;12.78;100397.63;5044499;28;20045;-83
2022/08/06 07:38:06;;;;;;;7.57;6.75;;;;;;;54.07;11.74;100425.88;5020613;28;20513;-84
2022/08/06 07:40:53;;;;;;;8.18;7.30;;;;;;;53.38;12.01;100423.81;5023219;28;20034;-84
2022/08/06 07:43:40;;;;;;;9.55;7.20;;;;;;;53.17;12.09;100418.34;5040444;28;20017;-86
2022/08/06 07:46:09;;;;;;;7.10;6.45;;;;;;;53.66;11.77;100410.31;5016350;28;20045;-82
2022/08/06 07:48:41;;;;;;;9.70;7.13;;;;;;;53.88;11.55;100387.63;4996791;28;20057;-81
2022/08/06 07:51:08;;;;;;;9.55;6.75;;;;;;;54.56;11.22;100418.47;4999409;28;20069;-82
2022/08/06 07:53:39;;;;;;;6.88;6.22;;;;;;;53.87;11.35;100414.59;5023511;28;20131;-82
2022/08/06 07:56:07;;;;;;;7.10;6.18;;;;;;;52.66;11.93;100384.06;5017953;28;20042;-81
2022/08/06 07:58:47;;;;;;;7.93;6.17;;;;;;;51.43;11.94;100366.28;5020457;28;20041;-82
2022/08/06 08:01:22;;;;;;;8.70;6.68;;;;;;;50.66;12.40;100388.94;4986205;28;20148;-83
2022/08/06 08:06:44;;;;;;;6.45;5.88;;;;;;;49.58;13.22;100378.63;5006539;28;20131;-85
2022/08/06 08:12:43;;;;;;;7.38;6.60;;;;;;;50.11;14.24;100402.06;4966233;28;19939;-81
2022/08/06 08:15:10;;;;;;;8.85;6.45;;;;;;;51.92;13.13;100376.09;4984884;28;20090;-82
2022/08/06 08:17:36;;;;;;;6.18;5.60;;;;;;;52.16;12.69;100366.38;4990252;28;20049;-82
2022/08/06 08:20:06;;;;;;;7.30;6.38;;;;;;;53.21;11.76;100402.75;4998849;28;20500;-83
2022/08/06 08:22:35;;;;;;;8.55;7.63;;;;;;;52.92;11.89;100394.25;5033794;28;20091;-83
2022/08/06 08:25:02;;;;;;;6.53;5.93;;;;;;;52.13;11.16;100387.16;5022817;28;20052;-81
2022/08/06 08:27:28;;;;;;;7.43;6.22;;;;;;;51.44;12.42;100403.13;5026898;28;20038;-81
2022/08/06 08:29:55;;;;;;;6.15;5.63;;;;;;;52.17;12.19;100399.38;5004506;28;20041;-81
2022/08/06 08:32:45;;;;;;;8.13;6.18;;;;;;;51.53;12.44;100348.84;5032803;28;20125;-84
2022/08/06 08:35:11;;;;;;;6.30;5.35;;;;;;;52.06;12.13;100359.72;4991475;28;20057;-82
2022/08/06 08:37:37;;;;;;;6.35;5.85;;;;;;;52.80;11.35;100369.59;5021194;28;20053;-83
2022/08/06 08:40:04;;;;;;;5.60;5.20;;;;;;;53.75;10.65;100366.88;4992005;28;20048;-80
2022/08/06 08:42:39;;;;;;;7.43;6.35;;;;;;;53.51;10.33;100387.06;5002563;28;20040;-81
2022/08/06 08:45:06;;;;;;;6.68;5.60;;;;;;;52.90;11.12;100386.19;4990206;28;20171;-78
2022/08/06 08:47:35;;;;;;;9.30;5.40;;;;;;;52.97;10.83;100386.75;5004811;28;20121;-82
2022/08/06 08:50:03;;;;;;;6.20;5.65;;;;;;;53.35;10.84;100379.91;4988560;28;20115;-81
2022/08/06 08:52:33;;;;;;;6.40;5.35;;;;;;;52.76;11.62;100387.94;5008661;28;20068;-80
2022/08/06 08:55:04;;;;;;;10.80;5.85;;;;;;;52.66;11.33;100381.28;5039059;28;20037;-80
2022/08/06 08:57:32;;;;;;;6.22;5.72;;;;;;;52.74;11.35;100384.59;5040358;28;20053;-83
2022/08/06 09:00:03;;;;;;;6.17;5.57;;;;;;;52.72;11.25;100377.41;4999629;28;20046;-79
2022/08/06 09:02:32;;;;;;;13.38;6.70;;;;;;;51.95;11.13;100366.41;5017124;28;20382;-83
2022/08/06 09:05:00;;;;;;;8.10;5.95;;;;;;;50.73;12.19;100372.09;5023757;28;20078;-82
2022/08/06 09:07:28;;;;;;;6.15;5.30;;;;;;;50.14;12.50;100369.19;5027943;28;20393;-83
2022/08/06 09:13:42;;;;;;;7.95;6.38;;;;;;;50.19;12.12;100343.53;5030928;28;20103;-82
2022/08/06 09:16:09;;;;;;;6.60;6.10;;;;;;;50.95;12.90;100360.88;5032120;28;20068;-83
2022/08/06 09:18:35;;;;;;;9.15;5.68;;;;;;;50.75;12.13;100367.97;5029708;28;20033;-86
2022/08/06 09:21:02;;;;;;;6.90;5.57;;;;;;;51.36;11.43;100352.72;5028648;28;20044;-82
2022/08/06 09:23:48;;;;;;;6.07;5.60;;;;;;;51.01;10.95;100337.63;5009690;28;20045;-82
2022/08/06 09:26:14;;;;;;;8.68;5.68;;;;;;;51.59;11.41;100360.78;5051599;28;20049;-82
2022/08/06 09:28:44;;;;;;;7.03;5.97;;;;;;;51.46;11.64;100337.19;5029329;28;20041;-80
2022/08/06 09:31:17;;;;;;;10.07;5.60;;;;;;;51.98;11.05;100338.09;5044178;28;20136;-82
2022/08/06 09:34:02;;;;;;;6.57;5.97;;;;;;;51.03;10.88;100363.09;5014219;28;20132;-79
2022/08/06 09:36:43;;;;;;;6.03;5.40;;;;;;;50.35;12.05;100358.28;5009857;28;20532;-80
2022/08/06 09:39:15;;;;;;;6.55;5.38;;;;;;;49.99;11.57;100361.56;5043051;28;20056;-80
2022/08/06 09:41:49;;;;;;;7.53;5.22;;;;;;;48.78;12.89;100358.81;5040087;28;20060;-80
2022/08/06 09:44:22;;;;;;;6.45;4.78;;;;;;;47.98;13.31;100334.97;5044334;28;20064;-81
2022/08/06 09:46:50;;;;;;;9.02;4.68;;;;;;;48.20;13.39;100332.31;5013229;28;20123;-80
2022/08/06 09:49:19;;;;;;;7.20;5.22;;;;;;;48.96;13.39;100333.69;5048545;28;20128;-80
2022/08/06 09:51:46;;;;;;;12.10;5.97;;;;;;;50.49;12.47;100340.13;5042434;28;20098;-80
2022/08/06 09:54:18;;;;;;;6.38;5.78;;;;;;;49.93;12.63;100335.00;5019668;28;20041;-79
2022/08/06 09:56:56;;;;;;;6.32;5.22;;;;;;;49.56;12.72;100321.94;5035605;28;20103;-82
2022/08/06 09:59:23;;;;;;;9.70;5.68;;;;;;;50.15;12.36;100339.63;5031194;28;20043;-80
2022/08/06 10:01:50;;;;;;;5.85;5.05;;;;;;;48.79;12.84;100321.84;5047631;28;20037;-80
2022/08/06 10:04:28;;;;;;;6.85;5.53;;;;;;;47.10;14.11;100319.53;5026720;28;20052;-78
2022/08/06 10:06:55;;;;;;;7.38;5.40;;;;;;;45.23;15.12;100329.78;5041174;28;20065;-80
2022/08/06 10:09:23;;;;;;;5.82;5.22;;;;;;;43.54;16.75;100341.31;5046312;28;20048;-79
2022/08/06 10:11:50;;;;;;;7.82;5.18;;;;;;;41.93;17.90;100317.78;5015566;28;20098;-82
2022/08/06 10:14:36;;;;;;;10.55;5.53;;;;;;;42.90;17.47;100319.25;5041621;28;20032;-78
2022/08/06 10:17:12;;;;;;;6.82;5.72;;;;;;;44.59;16.62;100324.56;5047625;28;20065;-82
2022/08/06 10:19:41;;;;;;;9.23;5.82;;;;;;;45.80;15.27;100315.69;5045525;28;20045;-81
2022/08/06 10:22:15;;;;;;;7.43;4.93;;;;;;;46.20;15.04;100338.97;5011468;28;20045;-81
2022/08/06 10:24:44;;;;;;;5.40;4.80;;;;;;;46.86;14.94;100307.78;5025581;28;20310;-80
2022/08/06 10:27:16;;;;;;;5.13;4.70;;;;;;;46.71;14.36;100302.75;5027134;28;20048;-81
2022/08/06 10:30:00;;;;;;;7.03;5.20;;;;;;;45.90;14.81;100317.03;5041194;28;20120;-82
2022/08/06 10:32:49;;;;;;;11.02;5.40;;;;;;;43.99;15.85;100312.19;5045779;28;20041;-82
2022/08/06 10:35:17;;;;;;;5.47;4.97;;;;;;;42.37;17.80;100312.84;5014956;28;20084;-80
2022/08/06 10:37:47;;;;;;;9.30;4.68;;;;;;;42.52;18.42;100307.09;5044765;28;21009;-83
2022/08/06 10:40:15;;;;;;;7.90;5.60;;;;;;;42.56;17.92;100310.28;5028165;28;20041;-81
2022/08/06 10:43:11;;;;;;;8.07;5.28;;;;;;;42.21;18.39;100305.00;5016780;28;20052;-81
2022/08/06 10:46:15;;;;;;;9.27;5.90;;;;;;;40.83;17.94;100260.53;5031109;28;20048;-82
2022/08/06 10:48:48;;;;;;;5.82;5.15;;;;;;;39.53;20.04;100265.09;5025435;28;20389;-83
2022/08/06 10:51:15;;;;;;;6.57;5.47;;;;;;;38.73;21.49;100273.06;5038020;28;20497;-82
2022/08/06 10:53:46;;;;;;;6.32;5.50;;;;;;;38.27;22.25;100249.59;5008689;28;20040;-80
2022/08/06 10:56:26;;;;;;;;;;;;;;;38.17;22.55;100296.00;5041646;28;20037;-81
2022/08/06 10:58:56;;;;;;;10.88;6.43;;;;;;;37.36;22.01;100250.22;5039322;28;19916;-81
2022/08/06 11:01:43;;;;;;;9.32;6.15;;;;;;;37.25;23.27;100235.19;5035842;28;20068;-80
2022/08/06 11:04:30;;;;;;;6.45;5.07;;;;;;;37.65;23.04;100286.69;5036928;28;21164;-79
2022/08/06 11:07:42;;;;;;;7.95;5.50;;;;;;;37.47;22.62;100287.81;4986493;28;20421;-81
2022/08/06 11:10:49;;;;;;;8.25;5.93;;;;;;;37.25;22.76;100286.72;5007063;28;20071;-81
2022/08/06 11:13:51;;;;;;;8.15;5.47;;;;;;;37.25;23.23;100281.31;4983836;28;20559;-79
2022/08/06 11:16:29;;;;;;;8.00;5.80;;;;;;;37.12;22.75;100276.44;5012744;28;20069;-80
2022/08/06 11:19:28;;;;;;;8.20;5.53;;;;;;;36.84;23.08;100276.84;5000214;28;20072;-79
2022/08/06 11:22:15;;;;;;;7.88;5.40;;;;;;;36.51;23.30;100232.75;4997821;28;20611;-81
2022/08/06 11:24:54;;;;;;;11.10;6.60;;;;;;;36.74;23.27;100273.53;4968608;28;20042;-82
2022/08/06 11:28:44;;;;;;;;;;;;;;;;;;;;;
2022/08/06 11:31:48;;;;;;;12.40;8.85;;;;;;;36.71;24.33;100265.72;4905384;28;20048;-81
2022/08/06 11:34:43;;;;;;;7.30;5.45;;;;;;;36.29;24.56;100229.72;4967193;28;20069;-79
2022/08/06 11:37:11;;;;;;;9.13;6.03;;;;;;;36.23;25.03;100254.75;5020147;28;20036;-79
2022/08/06 11:40:07;;;;;;;9.80;6.45;;;;;;;35.93;25.10;100259.84;5012415;28;20161;-81
2022/08/06 11:42:44;;;;;;;12.77;5.65;;;;;;;35.42;25.60;100231.00;5010215;28;20048;-82
2022/08/06 11:45:23;;;;;;;9.13;5.30;;;;;;;35.10;25.72;100252.38;4976006;28;20045;-83
2022/08/06 11:48:25;;;;;;;7.03;5.45;;;;;;;34.33;26.44;100188.28;4969377;28;20577;-80
2022/08/06 11:50:54;;;;;;;6.60;5.05;;;;;;;34.30;26.64;100185.91;4986682;28;20091;-82
2022/08/06 11:53:39;;;;;;;5.10;4.70;;;;;;;34.52;26.63;100211.56;5019810;28;20535;-80
2022/08/06 11:56:26;;;;;;;7.78;5.28;;;;;;;34.78;26.80;100244.94;5015129;28;20042;-78
2022/08/06 11:59:18;;;;;;;6.13;4.65;;;;;;;34.83;26.54;100238.03;5037715;28;20048;-79